createdAt,value
2018-09-08T00:00:26.730Z,8.40
2018-09-08T00:01:26.689Z,8.80
2018-09-08T00:02:26.679Z,10.10
2018-09-08T00:03:26.629Z,8.70
2018-09-08T00:04:26.593Z,8.40
2018-09-08T00:05:26.541Z,8.60
2018-09-08T00:06:26.520Z,8.20
2018-09-08T00:07:26.497Z,8.30
2018-09-08T00:08:26.438Z,7.60
2018-09-08T00:09:26.408Z,7.50
2018-09-08T00:10:26.361Z,7.70
2018-09-08T00:11:26.350Z,8.00
2018-09-08T00:12:26.297Z,8.90
2018-09-08T00:13:26.262Z,9.10
2018-09-08T00:14:26.227Z,9.40
2018-09-08T00:15:26.208Z,9.10
2018-09-08T00:16:26.168Z,8.90
2018-09-08T00:17:26.127Z,9.40
2018-09-08T00:18:26.088Z,8.90
2018-09-08T00:19:26.041Z,8.20
2018-09-08T00:20:26.000Z,8.60
2018-09-08T00:21:25.982Z,8.90
2018-09-08T00:22:25.945Z,9.10
2018-09-08T00:23:25.908Z,8.50
2018-09-08T00:24:25.863Z,9.00
2018-09-08T00:25:25.829Z,8.10
2018-09-08T00:26:25.786Z,8.40
2018-09-08T00:27:25.754Z,9.10
2018-09-08T00:28:25.710Z,9.30
2018-09-08T00:29:25.672Z,10.10
2018-09-08T00:30:25.645Z,9.30
2018-09-08T00:31:25.637Z,8.90
2018-09-08T00:32:25.574Z,8.60
2018-09-08T00:33:25.530Z,9.40
2018-09-08T00:34:25.523Z,9.50
2018-09-08T00:35:25.560Z,9.70
2018-09-08T00:36:25.451Z,8.70
2018-09-08T00:37:25.389Z,8.10
2018-09-08T00:38:25.382Z,7.70
2018-09-08T00:39:25.329Z,8.70
2018-09-08T00:40:25.278Z,8.90
2018-09-08T00:41:25.240Z,9.70
2018-09-08T00:42:25.202Z,9.80
2018-09-08T00:43:25.168Z,8.60
2018-09-08T00:44:25.155Z,8.00
2018-09-08T00:45:25.108Z,8.40
2018-09-08T00:46:25.058Z,8.60
2018-09-08T00:47:25.049Z,9.10
2018-09-08T00:48:24.995Z,9.90
2018-09-08T00:49:24.943Z,9.30
2018-09-08T00:50:24.913Z,10.10
2018-09-08T00:51:24.881Z,10.20
2018-09-08T00:52:24.837Z,10.10
2018-09-08T00:53:24.807Z,9.90
2018-09-08T00:54:24.763Z,10.90
2018-09-08T00:55:24.759Z,10.40
2018-09-08T00:56:24.697Z,10.30
2018-09-08T00:57:24.680Z,9.20
2018-09-08T00:58:24.619Z,9.60
2018-09-08T00:59:24.583Z,11.10
2018-09-08T01:00:24.557Z,11.20
2018-09-08T01:01:24.499Z,10.30
2018-09-08T01:02:24.473Z,10.30
2018-09-08T01:03:24.441Z,9.80
2018-09-08T01:04:24.393Z,9.60
2018-09-08T01:05:24.355Z,9.70
2018-09-08T01:06:24.315Z,10.20
2018-09-08T01:07:24.316Z,10.00
2018-09-08T01:08:24.265Z,9.70
2018-09-08T01:09:24.219Z,9.80
2018-09-08T01:10:24.174Z,10.90
2018-09-08T01:11:24.135Z,9.80
2018-09-08T01:12:24.106Z,10.40
2018-09-08T01:13:24.157Z,9.70
2018-09-08T01:14:24.014Z,10.60
2018-09-08T01:15:24.035Z,10.40
2018-09-08T01:16:23.967Z,11.50
2018-09-08T01:17:23.952Z,11.20
2018-09-08T01:18:23.888Z,10.70
2018-09-08T01:19:23.847Z,11.60
2018-09-08T01:20:23.794Z,11.70
2018-09-08T01:21:23.759Z,11.70
2018-09-08T01:22:23.802Z,11.80
2018-09-08T01:23:23.688Z,11.60
2018-09-08T01:24:23.665Z,11.40
2018-09-08T01:25:23.605Z,11.30
2018-09-08T01:26:23.576Z,11.70
2018-09-08T01:27:23.538Z,12.20
2018-09-08T01:28:23.516Z,12.00
2018-09-08T01:29:23.458Z,10.70
2018-09-08T01:30:23.440Z,11.00
2018-09-08T01:31:23.421Z,10.60
2018-09-08T01:32:23.440Z,10.30
2018-09-08T01:33:23.311Z,10.90
2018-09-08T01:34:23.300Z,10.50
2018-09-08T01:35:23.237Z,10.20
2018-09-08T01:36:23.229Z,9.50
2018-09-08T01:37:23.172Z,12.70
2018-09-08T01:38:23.133Z,10.80
2018-09-08T01:39:23.115Z,9.30
2018-09-08T01:40:23.045Z,9.90
2018-09-08T01:41:23.018Z,10.60
2018-09-08T01:42:22.969Z,10.90
2018-09-08T01:43:22.931Z,9.70
2018-09-08T01:44:22.903Z,8.90
2018-09-08T01:45:22.869Z,10.90
2018-09-08T01:46:22.823Z,11.20
2018-09-08T01:47:22.801Z,12.40
2018-09-08T01:48:22.770Z,15.60
2018-09-08T01:49:22.709Z,15.10
2018-09-08T01:50:22.676Z,22.90
2018-09-08T01:51:22.651Z,11.90
2018-09-08T01:52:22.599Z,11.80
2018-09-08T01:53:22.560Z,12.10
2018-09-08T01:54:22.551Z,12.40
2018-09-08T01:55:22.569Z,17.10
2018-09-08T01:56:22.445Z,20.50
2018-09-08T01:57:22.420Z,17.10
2018-09-08T01:58:22.372Z,17.30
2018-09-08T01:59:22.340Z,12.30
2018-09-08T02:00:22.314Z,10.90
2018-09-08T02:01:22.260Z,10.50
2018-09-08T02:02:22.231Z,10.70
2018-09-08T02:03:22.187Z,9.80
2018-09-08T02:04:22.143Z,13.40
2018-09-08T02:05:22.124Z,14.10
2018-09-08T02:06:22.071Z,17.80
2018-09-08T02:07:22.041Z,19.40
2018-09-08T02:08:22.009Z,14.40
2018-09-08T02:09:21.971Z,12.30
2018-09-08T02:10:21.928Z,11.70
2018-09-08T02:11:21.886Z,13.00
2018-09-08T02:12:21.846Z,14.50
2018-09-08T02:13:21.802Z,12.90
2018-09-08T02:14:21.772Z,14.60
2018-09-08T02:15:21.744Z,11.20
2018-09-08T02:16:21.698Z,11.80
2018-09-08T02:17:21.682Z,17.00
2018-09-08T02:18:21.630Z,19.50
2018-09-08T02:19:21.570Z,12.00
2018-09-08T02:20:21.539Z,14.60
2018-09-08T02:21:21.498Z,15.40
2018-09-08T02:22:21.495Z,12.10
2018-09-08T02:23:21.444Z,11.80
2018-09-08T02:24:21.413Z,11.70
2018-09-08T02:25:21.410Z,11.90
2018-09-08T02:26:21.330Z,11.90
2018-09-08T02:27:21.301Z,11.80
2018-09-08T02:28:21.266Z,12.40
2018-09-08T02:29:21.197Z,12.60
2018-09-08T02:30:21.197Z,12.20
2018-09-08T02:31:21.118Z,12.20
2018-09-08T02:32:21.119Z,12.30
2018-09-08T02:33:21.124Z,12.60
2018-09-08T02:34:21.057Z,13.00
2018-09-08T02:35:20.988Z,13.00
2018-09-08T02:36:20.942Z,12.80
2018-09-08T02:37:20.916Z,12.00
2018-09-08T02:38:20.898Z,12.70
2018-09-08T02:39:21.370Z,12.60
2018-09-08T02:40:20.786Z,12.30
2018-09-08T02:41:20.786Z,12.70
2018-09-08T02:42:20.710Z,13.70
2018-09-08T02:43:20.745Z,13.70
2018-09-08T02:44:20.637Z,12.80
2018-09-08T02:45:20.602Z,13.10
2018-09-08T02:46:20.576Z,12.80
2018-09-08T02:47:20.537Z,13.10
2018-09-08T02:48:20.482Z,13.00
2018-09-08T02:49:20.468Z,13.00
2018-09-08T02:50:20.412Z,13.60
2018-09-08T02:51:20.377Z,13.40
2018-09-08T02:52:20.379Z,12.90
2018-09-08T02:53:20.282Z,14.50
2018-09-08T02:54:20.295Z,13.30
2018-09-08T02:55:20.312Z,12.20
2018-09-08T02:56:20.235Z,13.10
2018-09-08T02:57:20.233Z,13.30
2018-09-08T02:58:20.149Z,12.80
2018-09-08T02:59:20.090Z,13.60
2018-09-08T03:00:20.050Z,13.60
2018-09-08T03:01:20.073Z,13.80
2018-09-08T03:02:19.926Z,14.40
2018-09-08T03:03:19.962Z,13.90
2018-09-08T03:04:19.878Z,13.80
2018-09-08T03:05:19.823Z,13.70
2018-09-08T03:06:19.777Z,13.90
2018-09-08T03:07:19.756Z,13.30
2018-09-08T03:08:19.719Z,13.40
2018-09-08T03:09:19.671Z,13.60
2018-09-08T03:10:19.632Z,13.30
2018-09-08T03:11:19.598Z,12.70
2018-09-08T03:12:19.559Z,14.40
2018-09-08T03:13:19.511Z,16.10
2018-09-08T03:14:19.494Z,13.70
2018-09-08T03:15:19.438Z,14.10
2018-09-08T03:16:19.506Z,15.80
2018-09-08T03:17:19.361Z,15.30
2018-09-08T03:18:19.331Z,15.90
2018-09-08T03:19:19.278Z,25.20
2018-09-08T03:20:19.246Z,16.40
2018-09-08T03:21:19.211Z,16.20
2018-09-08T03:22:19.167Z,15.40
2018-09-08T03:23:19.181Z,15.40
2018-09-08T03:24:19.111Z,17.10
2018-09-08T03:25:19.043Z,16.30
2018-09-08T03:26:19.002Z,15.60
2018-09-08T03:27:18.967Z,15.50
2018-09-08T03:28:18.927Z,16.10
2018-09-08T03:29:18.879Z,16.00
2018-09-08T03:30:18.958Z,14.20
2018-09-08T03:31:18.828Z,13.60
2018-09-08T03:32:18.792Z,14.30
2018-09-08T03:33:18.732Z,14.70
2018-09-08T03:34:18.695Z,15.80
2018-09-08T03:35:18.646Z,16.60
2018-09-08T03:36:18.647Z,16.70
2018-09-08T03:37:18.571Z,22.30
2018-09-08T03:38:18.535Z,14.70
2018-09-08T03:39:18.520Z,14.80
2018-09-08T03:40:18.464Z,15.70
2018-09-08T03:41:18.420Z,16.10
2018-09-08T03:42:18.388Z,15.90
2018-09-08T03:43:18.345Z,17.10
2018-09-08T03:44:18.302Z,17.50
2018-09-08T03:45:18.271Z,16.60
2018-09-08T03:46:18.220Z,16.60
2018-09-08T03:47:18.183Z,17.80
2018-09-08T03:48:18.145Z,18.30
2018-09-08T03:49:18.119Z,17.40
2018-09-08T03:50:18.086Z,17.80
2018-09-08T03:51:18.044Z,17.80
2018-09-08T03:52:18.000Z,16.70
2018-09-08T03:53:17.951Z,17.10
2018-09-08T03:54:17.916Z,16.20
2018-09-08T03:55:17.870Z,17.60
2018-09-08T03:56:17.855Z,18.20
2018-09-08T03:57:17.837Z,17.60
2018-09-08T03:58:17.775Z,18.20
2018-09-08T03:59:17.840Z,18.40
2018-09-08T04:00:17.681Z,18.90
2018-09-08T04:01:17.659Z,17.40
2018-09-08T04:02:17.591Z,18.30
2018-09-08T04:03:17.630Z,16.90
2018-09-08T04:04:17.557Z,17.10
2018-09-08T04:05:17.509Z,20.20
2018-09-08T04:06:17.473Z,17.40
2018-09-08T04:07:17.414Z,18.30
2018-09-08T04:08:17.500Z,18.10
2018-09-08T04:09:17.336Z,17.30
2018-09-08T04:10:17.286Z,13.70
2018-09-08T04:11:17.294Z,14.50
2018-09-08T04:12:17.331Z,16.20
2018-09-08T04:13:17.193Z,16.30
2018-09-08T04:14:17.211Z,16.70
2018-09-08T04:15:17.089Z,18.10
2018-09-08T04:16:17.051Z,17.90
2018-09-08T04:17:17.036Z,18.30
2018-09-08T04:18:16.977Z,18.80
2018-09-08T04:19:16.976Z,20.10
2018-09-08T04:20:16.892Z,20.70
2018-09-08T04:21:16.869Z,20.70
2018-09-08T04:22:16.822Z,18.50
2018-09-08T04:23:16.796Z,17.00
2018-09-08T04:24:16.738Z,17.60
2018-09-08T04:25:16.733Z,19.60
2018-09-08T04:26:16.659Z,20.60
2018-09-08T04:27:16.626Z,19.00
2018-09-08T04:28:16.576Z,19.40
2018-09-08T04:29:16.635Z,18.50
2018-09-08T04:30:16.570Z,19.90
2018-09-08T04:31:16.466Z,18.20
2018-09-08T04:32:16.437Z,18.90
2018-09-08T04:33:16.388Z,19.00
2018-09-08T04:34:16.367Z,18.70
2018-09-08T04:35:16.305Z,17.80
2018-09-08T04:36:16.278Z,18.80
2018-09-08T04:37:16.219Z,18.20
2018-09-08T04:38:16.200Z,19.50
2018-09-08T04:39:16.171Z,19.10
2018-09-08T04:40:16.106Z,20.80
2018-09-08T04:41:16.095Z,18.00
2018-09-08T04:42:16.026Z,23.30
2018-09-08T04:43:15.993Z,20.20
2018-09-08T04:44:15.961Z,14.30
2018-09-08T04:45:15.929Z,17.90
2018-09-08T04:46:15.923Z,14.10
2018-09-08T04:47:15.846Z,15.60
2018-09-08T04:48:16.469Z,16.70
2018-09-08T04:49:15.788Z,16.60
2018-09-08T04:50:15.732Z,20.50
2018-09-08T04:51:15.712Z,22.30
2018-09-08T04:52:15.647Z,25.70
2018-09-08T04:53:15.596Z,18.90
2018-09-08T04:54:15.565Z,22.60
2018-09-08T04:55:15.529Z,17.90
2018-09-08T04:56:15.491Z,19.30
2018-09-08T04:57:15.446Z,17.30
2018-09-08T04:58:15.410Z,17.70
2018-09-08T04:59:15.367Z,17.50
2018-09-08T05:00:15.325Z,17.60
2018-09-08T05:01:15.273Z,18.90
2018-09-08T05:02:15.252Z,20.50
2018-09-08T05:03:15.232Z,19.00
2018-09-08T05:04:15.169Z,19.90
2018-09-08T05:05:15.137Z,19.40
2018-09-08T05:06:15.081Z,19.50
2018-09-08T05:07:15.050Z,20.30
2018-09-08T05:08:15.022Z,21.20
2018-09-08T05:09:14.973Z,19.80
2018-09-08T05:10:14.943Z,19.00
2018-09-08T05:11:14.886Z,20.20
2018-09-08T05:12:15.430Z,20.00
2018-09-08T05:13:14.863Z,20.30
2018-09-08T05:14:14.810Z,20.00
2018-09-08T05:15:14.725Z,19.90
2018-09-08T05:16:15.415Z,20.70
2018-09-08T05:17:14.682Z,20.80
2018-09-08T05:18:14.615Z,20.10
2018-09-08T05:19:14.580Z,20.00
2018-09-08T05:20:14.532Z,21.40
2018-09-08T05:21:14.490Z,20.40
2018-09-08T05:22:14.456Z,19.70
2018-09-08T05:23:14.428Z,20.20
2018-09-08T05:24:14.364Z,19.90
2018-09-08T05:25:14.339Z,19.10
2018-09-08T05:26:14.292Z,19.40
2018-09-08T05:27:14.250Z,19.30
2018-09-08T05:28:14.278Z,20.50
2018-09-08T05:29:14.188Z,20.20
2018-09-08T05:30:14.160Z,20.10
2018-09-08T05:31:14.099Z,20.10
2018-09-08T05:32:14.061Z,19.50
2018-09-08T05:33:14.064Z,19.60
2018-09-08T05:34:14.012Z,19.60
2018-09-08T05:35:13.939Z,21.50
2018-09-08T05:36:13.928Z,20.70
2018-09-08T05:37:13.903Z,20.30
2018-09-08T05:38:13.824Z,20.80
2018-09-08T05:39:13.828Z,22.50
2018-09-08T05:40:13.761Z,22.00
2018-09-08T05:41:13.701Z,21.80
2018-09-08T05:42:13.715Z,21.70
2018-09-08T05:43:13.627Z,21.60
2018-09-08T05:44:13.636Z,22.20
2018-09-08T05:45:13.543Z,21.20
2018-09-08T05:46:13.498Z,21.00
2018-09-08T05:47:13.456Z,21.10
2018-09-08T05:48:13.428Z,21.70
2018-09-08T05:49:13.389Z,21.60
2018-09-08T05:50:13.361Z,21.90
2018-09-08T05:51:13.326Z,21.70
2018-09-08T05:52:13.270Z,22.80
2018-09-08T05:53:13.250Z,23.00
2018-09-08T05:54:13.217Z,20.10
2018-09-08T05:55:13.147Z,20.20
2018-09-08T05:56:13.121Z,20.50
2018-09-08T05:57:13.100Z,21.30
2018-09-08T05:58:13.045Z,21.20
2018-09-08T05:59:12.997Z,22.30
2018-09-08T06:00:12.978Z,21.40
2018-09-08T06:01:12.938Z,20.60
2018-09-08T06:02:12.916Z,21.30
2018-09-08T06:03:12.888Z,21.50
2018-09-08T06:04:12.808Z,21.40
2018-09-08T06:05:12.788Z,21.40
2018-09-08T06:06:12.754Z,20.20
2018-09-08T06:07:12.692Z,21.00
2018-09-08T06:08:12.662Z,22.70
2018-09-08T06:09:12.621Z,22.60
2018-09-08T06:10:12.631Z,23.00
2018-09-08T06:11:12.531Z,22.90
2018-09-08T06:12:12.501Z,22.70
2018-09-08T06:13:12.453Z,22.40
2018-09-08T06:14:12.450Z,22.50
2018-09-08T06:15:12.386Z,20.70
2018-09-08T06:16:12.334Z,21.10
2018-09-08T06:17:12.311Z,21.00
2018-09-08T06:18:12.324Z,21.50
2018-09-08T06:19:12.256Z,20.60
2018-09-08T06:20:12.212Z,21.10
2018-09-08T06:21:12.154Z,21.50
2018-09-08T06:22:12.117Z,21.60
2018-09-08T06:23:12.079Z,21.00
2018-09-08T06:24:12.051Z,21.90
2018-09-08T06:25:12.008Z,22.00
2018-09-08T06:26:11.964Z,22.50
2018-09-08T06:27:11.947Z,22.00
2018-09-08T06:28:11.892Z,22.20
2018-09-08T06:29:11.848Z,23.30
2018-09-08T06:30:11.836Z,25.00
2018-09-08T06:31:11.780Z,25.40
2018-09-08T06:32:11.747Z,24.60
2018-09-08T06:33:11.706Z,25.50
2018-09-08T06:34:11.693Z,25.50
2018-09-08T06:35:11.729Z,23.80
2018-09-08T06:36:11.585Z,23.60
2018-09-08T06:37:11.547Z,22.10
2018-09-08T06:38:11.509Z,21.70
2018-09-08T06:39:11.479Z,22.50
2018-09-08T06:40:11.504Z,22.40
2018-09-08T06:41:11.409Z,21.70
2018-09-08T06:42:11.376Z,21.90
2018-09-08T06:43:13.025Z,21.10
2018-09-08T06:44:11.287Z,21.00
2018-09-08T06:45:11.264Z,19.20
2018-09-08T06:46:11.204Z,19.40
2018-09-08T06:47:11.178Z,19.50
2018-09-08T06:48:11.143Z,18.90
2018-09-08T06:49:11.129Z,17.70
2018-09-08T06:50:11.146Z,18.30
2018-09-08T06:51:11.937Z,17.90
2018-09-08T06:52:11.020Z,17.00
2018-09-08T06:53:10.967Z,17.00
2018-09-08T06:54:10.930Z,17.80
2018-09-08T06:55:10.894Z,16.70
2018-09-08T06:56:10.849Z,13.40
2018-09-08T06:57:10.803Z,14.70
2018-09-08T06:58:10.775Z,12.50
2018-09-08T06:59:10.743Z,13.10
2018-09-08T07:00:10.706Z,11.60
2018-09-08T07:01:10.670Z,11.00
2018-09-08T07:02:10.638Z,10.40
2018-09-08T07:03:10.599Z,11.20
2018-09-08T07:04:10.568Z,10.30
2018-09-08T07:05:10.531Z,10.20
2018-09-08T07:06:10.527Z,9.90
2018-09-08T07:07:10.472Z,8.80
2018-09-08T07:08:10.457Z,7.60
2018-09-08T07:09:10.411Z,7.90
2018-09-08T07:10:10.383Z,7.20
2018-09-08T07:11:10.352Z,7.30
2018-09-08T07:12:10.310Z,6.60
2018-09-08T07:13:10.280Z,6.50
2018-09-08T07:14:10.260Z,6.40
2018-09-08T07:15:10.254Z,6.20
2018-09-08T07:16:10.195Z,6.00
2018-09-08T07:17:10.221Z,6.00
2018-09-08T07:18:10.144Z,5.90
2018-09-08T07:19:10.126Z,5.70
2018-09-08T07:20:10.093Z,5.50
2018-09-08T07:21:10.067Z,5.30
2018-09-08T07:22:10.063Z,5.30
2018-09-08T07:23:10.024Z,4.40
2018-09-08T07:24:09.992Z,5.00
2018-09-08T07:25:09.979Z,4.90
2018-09-08T07:26:09.941Z,5.00
2018-09-08T07:27:09.910Z,5.00
2018-09-08T07:28:09.913Z,5.90
2018-09-08T07:29:09.859Z,5.80
2018-09-08T07:30:09.840Z,5.50
2018-09-08T07:31:09.844Z,5.50
2018-09-08T07:32:09.801Z,5.70
2018-09-08T07:33:09.765Z,5.70
2018-09-08T07:34:09.745Z,6.30
2018-09-08T07:35:09.721Z,5.30
2018-09-08T07:36:09.696Z,5.00
2018-09-08T07:37:09.717Z,5.70
2018-09-08T07:38:09.680Z,5.50
2018-09-08T07:39:09.636Z,5.30
2018-09-08T07:40:09.604Z,5.80
2018-09-08T07:41:09.581Z,5.70
2018-09-08T07:42:09.561Z,5.50
2018-09-08T07:43:09.539Z,5.60
2018-09-08T07:44:09.521Z,6.10
2018-09-08T07:45:09.502Z,5.90
2018-09-08T07:46:09.528Z,5.70
2018-09-08T07:47:09.457Z,6.50
2018-09-08T07:48:09.467Z,6.50
2018-09-08T07:49:09.414Z,6.20
2018-09-08T07:50:09.387Z,6.20
2018-09-08T07:51:09.427Z,6.60
2018-09-08T07:52:09.358Z,5.60
2018-09-08T07:53:09.357Z,5.60
2018-09-08T07:54:09.285Z,5.90
2018-09-08T07:55:09.272Z,5.70
2018-09-08T07:56:09.237Z,6.60
2018-09-08T07:57:09.218Z,6.00
2018-09-08T07:58:09.199Z,5.80
2018-09-08T07:59:09.194Z,5.60
2018-09-08T08:00:09.158Z,5.30
2018-09-08T08:01:09.164Z,5.70
2018-09-08T08:02:09.214Z,6.30
2018-09-08T08:03:09.088Z,6.00
2018-09-08T08:04:09.075Z,6.30
2018-09-08T08:05:09.034Z,5.80
2018-09-08T08:06:09.029Z,5.50
2018-09-08T08:07:08.994Z,5.20
2018-09-08T08:08:09.008Z,5.10
2018-09-08T08:09:08.966Z,5.50
2018-09-08T08:10:08.932Z,6.80
2018-09-08T08:11:08.910Z,6.20
2018-09-08T08:12:08.934Z,5.70
2018-09-08T08:13:08.853Z,5.40
2018-09-08T08:14:08.836Z,5.50
2018-09-08T08:15:08.818Z,5.00
2018-09-08T08:16:08.796Z,5.50
2018-09-08T08:17:08.796Z,5.40
2018-09-08T08:18:08.790Z,5.20
2018-09-08T08:19:08.711Z,4.90
2018-09-08T08:20:08.697Z,5.30
2018-09-08T08:21:08.647Z,5.20
2018-09-08T08:22:08.645Z,5.20
2018-09-08T08:23:08.674Z,4.80
2018-09-08T08:24:08.568Z,4.80
2018-09-08T08:25:08.548Z,4.70
2018-09-08T08:26:08.523Z,5.30
2018-09-08T08:27:08.490Z,4.40
2018-09-08T08:28:08.456Z,4.30
2018-09-08T08:29:08.438Z,4.50
2018-09-08T08:30:08.406Z,4.70
2018-09-08T08:31:08.421Z,4.40
2018-09-08T08:32:08.338Z,4.20
2018-09-08T08:33:08.311Z,4.50
2018-09-08T08:34:08.305Z,4.60
2018-09-08T08:35:08.250Z,4.10
2018-09-08T08:36:08.221Z,4.30
2018-09-08T08:37:08.249Z,3.80
2018-09-08T08:38:08.222Z,4.00
2018-09-08T08:39:08.149Z,4.00
2018-09-08T08:40:08.119Z,3.80
2018-09-08T08:41:08.089Z,3.60
2018-09-08T08:42:08.051Z,3.80
2018-09-08T08:43:08.065Z,4.10
2018-09-08T08:44:08.000Z,4.50
2018-09-08T08:45:07.980Z,4.10
2018-09-08T08:46:07.930Z,4.00
2018-09-08T08:47:07.902Z,3.80
2018-09-08T08:48:07.871Z,4.00
2018-09-08T08:49:07.840Z,4.00
2018-09-08T08:50:07.808Z,3.90
2018-09-08T08:51:07.777Z,3.40
2018-09-08T08:52:07.774Z,3.60
2018-09-08T08:53:07.804Z,3.20
2018-09-08T08:54:07.697Z,4.10
2018-09-08T08:55:07.670Z,3.40
2018-09-08T08:56:07.665Z,3.30
2018-09-08T08:57:07.641Z,3.60
2018-09-08T08:58:07.589Z,4.00
2018-09-08T08:59:07.551Z,4.20
2018-09-08T09:00:07.595Z,3.80
2018-09-08T09:01:07.523Z,3.80
2018-09-08T09:02:07.472Z,4.20
2018-09-08T09:03:07.436Z,3.20
2018-09-08T09:04:07.422Z,3.30
2018-09-08T09:05:07.393Z,3.20
2018-09-08T09:06:07.340Z,3.40
2018-09-08T09:07:07.314Z,3.00
2018-09-08T09:08:07.313Z,2.80
2018-09-08T09:09:07.274Z,2.70
2018-09-08T09:10:07.232Z,2.80
2018-09-08T09:11:07.243Z,2.80
2018-09-08T09:12:07.178Z,2.70
2018-09-08T09:13:07.364Z,2.90
2018-09-08T09:14:07.140Z,3.30
2018-09-08T09:15:07.560Z,3.70
2018-09-08T09:16:07.058Z,3.30
2018-09-08T09:17:07.088Z,3.00
2018-09-08T09:18:07.024Z,3.40
2018-09-08T09:19:06.986Z,3.10
2018-09-08T09:20:07.045Z,3.80
2018-09-08T09:21:06.991Z,3.40
2018-09-08T09:22:06.898Z,3.30
2018-09-08T09:23:06.882Z,3.50
2018-09-08T09:24:06.996Z,3.40
2018-09-08T09:25:06.873Z,3.40
2018-09-08T09:26:06.814Z,2.90
2018-09-08T09:27:06.775Z,3.10
2018-09-08T09:28:06.762Z,3.00
2018-09-08T09:29:06.738Z,2.80
2018-09-08T09:30:06.680Z,2.30
2018-09-08T09:31:06.685Z,2.80
2018-09-08T09:32:06.741Z,3.00
2018-09-08T09:33:06.662Z,3.30
2018-09-08T09:34:06.571Z,3.60
2018-09-08T09:35:06.555Z,3.90
2018-09-08T09:36:06.527Z,3.50
2018-09-08T09:37:06.506Z,3.50
2018-09-08T09:38:06.469Z,3.50
2018-09-08T09:39:06.429Z,3.10
2018-09-08T09:40:06.391Z,3.10
2018-09-08T09:41:06.370Z,3.00
2018-09-08T09:42:06.348Z,2.80
2018-09-08T09:43:06.310Z,3.40
2018-09-08T09:44:06.310Z,3.60
2018-09-08T09:45:06.262Z,3.70
2018-09-08T09:46:06.233Z,3.50
2018-09-08T09:47:06.212Z,3.40
2018-09-08T09:48:06.188Z,3.30
2018-09-08T09:49:06.133Z,3.20
2018-09-08T09:50:06.120Z,3.00
2018-09-08T09:51:06.090Z,2.50
2018-09-08T09:52:06.073Z,3.30
2018-09-08T09:53:06.075Z,3.20
2018-09-08T09:54:06.031Z,2.90
2018-09-08T09:55:05.979Z,3.30
2018-09-08T09:56:05.950Z,3.50
2018-09-08T09:57:05.941Z,3.20
2018-09-08T09:58:05.894Z,3.50
2018-09-08T09:59:05.856Z,3.30
2018-09-08T10:00:05.840Z,3.10
2018-09-08T10:01:05.840Z,3.70
2018-09-08T10:02:05.803Z,3.30
2018-09-08T10:03:05.781Z,3.50
2018-09-08T10:04:05.820Z,3.70
2018-09-08T10:05:05.781Z,3.40
2018-09-08T10:06:05.696Z,3.00
2018-09-08T10:07:05.671Z,3.30
2018-09-08T10:08:05.716Z,3.00
2018-09-08T10:09:05.699Z,2.80
2018-09-08T10:10:05.606Z,2.70
2018-09-08T10:11:05.568Z,2.80
2018-09-08T10:12:05.643Z,2.90
2018-09-08T10:13:05.573Z,3.40
2018-09-08T10:14:05.505Z,3.30
2018-09-08T10:15:05.493Z,2.90
2018-09-08T10:16:05.481Z,2.80
2018-09-08T10:17:05.451Z,2.70
2018-09-08T10:18:05.436Z,2.60
2018-09-08T10:19:05.364Z,3.30
2018-09-08T10:20:05.357Z,3.40
2018-09-08T10:21:05.333Z,3.40
2018-09-08T10:22:05.295Z,3.00
2018-09-08T10:23:05.414Z,3.30
2018-09-08T10:24:05.647Z,2.70
2018-09-08T10:25:05.267Z,3.50
2018-09-08T10:26:05.232Z,3.30
2018-09-08T10:27:05.180Z,3.00
2018-09-08T10:28:05.164Z,2.70
2018-09-08T10:29:05.133Z,3.10
2018-09-08T10:30:05.138Z,3.20
2018-09-08T10:31:05.092Z,2.60
2018-09-08T10:32:05.623Z,3.20
2018-09-08T10:33:05.064Z,2.50
2018-09-08T10:34:05.021Z,2.40
2018-09-08T10:35:05.004Z,2.80
2018-09-08T10:36:05.000Z,3.10
2018-09-08T10:37:04.988Z,2.60
2018-09-08T10:38:04.948Z,2.60
2018-09-08T10:39:04.929Z,2.70
2018-09-08T10:40:04.942Z,2.70
2018-09-08T10:41:04.856Z,2.60
2018-09-08T10:42:04.897Z,2.50
2018-09-08T10:43:04.839Z,2.70
2018-09-08T10:44:04.816Z,2.80
2018-09-08T10:45:04.790Z,3.00
2018-09-08T10:46:04.777Z,2.80
2018-09-08T10:47:04.733Z,2.50
2018-09-08T10:48:04.705Z,2.50
2018-09-08T10:49:04.698Z,2.60
2018-09-08T10:50:04.659Z,2.60
2018-09-08T10:51:04.800Z,2.90
2018-09-08T10:52:04.614Z,2.70
2018-09-08T10:53:04.603Z,2.60
2018-09-08T10:54:04.577Z,2.80
2018-09-08T10:55:04.545Z,2.70
2018-09-08T10:56:04.547Z,2.80
2018-09-08T10:57:04.515Z,2.50
2018-09-08T10:58:04.478Z,2.70
2018-09-08T10:59:04.470Z,2.70
2018-09-08T11:00:04.450Z,2.90
2018-09-08T11:01:04.412Z,2.70
2018-09-08T11:02:04.470Z,2.50
2018-09-08T11:03:04.370Z,2.30
2018-09-08T11:04:04.346Z,2.80
2018-09-08T11:05:04.331Z,2.70
2018-09-08T11:06:04.311Z,2.80
2018-09-08T11:07:04.321Z,2.60
2018-09-08T11:08:04.261Z,2.60
2018-09-08T11:09:04.256Z,2.90
2018-09-08T11:10:04.219Z,2.70
2018-09-08T11:11:04.194Z,2.70
2018-09-08T11:12:04.181Z,2.40
2018-09-08T11:13:04.152Z,2.30
2018-09-08T11:14:04.118Z,2.30
2018-09-08T11:15:04.097Z,2.40
2018-09-08T11:16:04.069Z,2.30
2018-09-08T11:17:04.094Z,2.80
2018-09-08T11:18:04.044Z,2.80
2018-09-08T11:19:04.009Z,2.80
2018-09-08T11:20:03.990Z,3.00
2018-09-08T11:21:03.952Z,2.70
2018-09-08T11:22:03.951Z,2.70
2018-09-08T11:23:03.952Z,2.50
2018-09-08T11:24:03.892Z,3.10
2018-09-08T11:25:03.904Z,3.00
2018-09-08T11:26:03.858Z,2.30
2018-09-08T11:27:03.882Z,2.40
2018-09-08T11:28:03.815Z,2.70
2018-09-08T11:29:03.811Z,2.30
2018-09-08T11:30:03.787Z,2.10
2018-09-08T11:31:03.783Z,2.60
2018-09-08T11:32:03.704Z,2.50
2018-09-08T11:33:03.700Z,2.30
2018-09-08T11:34:03.701Z,2.40
2018-09-08T11:35:03.660Z,2.60
2018-09-08T11:36:03.621Z,2.70
2018-09-08T11:37:03.639Z,3.00
2018-09-08T11:38:03.723Z,2.40
2018-09-08T11:39:03.569Z,2.40
2018-09-08T11:40:03.554Z,2.60
2018-09-08T11:41:03.629Z,2.70
2018-09-08T11:42:03.558Z,2.30
2018-09-08T11:43:03.507Z,2.40
2018-09-08T11:44:03.463Z,2.60
2018-09-08T11:45:03.425Z,2.40
2018-09-08T11:46:03.411Z,2.50
2018-09-08T11:47:03.381Z,2.30
2018-09-08T11:48:03.365Z,2.40
2018-09-08T11:49:03.341Z,2.70
2018-09-08T11:50:04.067Z,2.70
2018-09-08T11:51:03.290Z,2.40
2018-09-08T11:52:03.306Z,2.50
2018-09-08T11:53:03.324Z,2.30
2018-09-08T11:54:03.261Z,2.10
2018-09-08T11:55:03.237Z,2.50
2018-09-08T11:56:03.216Z,2.40
2018-09-08T11:57:03.179Z,2.50
2018-09-08T11:58:03.150Z,2.40
2018-09-08T11:59:03.107Z,2.20
2018-09-08T12:00:03.113Z,2.10
2018-09-08T12:01:03.093Z,2.10
2018-09-08T12:02:03.177Z,2.20
2018-09-08T12:03:03.054Z,2.20
2018-09-08T12:04:03.038Z,2.40
2018-09-08T12:05:02.985Z,2.30
2018-09-08T12:06:02.966Z,2.20
2018-09-08T12:07:02.930Z,2.20
2018-09-08T12:08:02.948Z,2.50
2018-09-08T12:09:02.916Z,2.50
2018-09-08T12:10:02.873Z,2.30
2018-09-08T12:11:02.855Z,2.60
2018-09-08T12:12:02.833Z,2.50
2018-09-08T12:13:02.806Z,2.20
2018-09-08T12:14:02.860Z,2.00
2018-09-08T12:15:02.768Z,2.50
2018-09-08T12:16:02.744Z,2.50
2018-09-08T12:17:02.709Z,2.50
2018-09-08T12:18:02.728Z,2.30
2018-09-08T12:19:02.684Z,2.30
2018-09-08T12:20:02.639Z,2.30
2018-09-08T12:21:02.611Z,2.60
2018-09-08T12:22:02.660Z,2.10
2018-09-08T12:23:02.586Z,2.20
2018-09-08T12:24:02.556Z,2.00
2018-09-08T12:25:02.535Z,2.10
2018-09-08T12:26:02.492Z,2.20
2018-09-08T12:27:02.479Z,2.30
2018-09-08T12:28:02.453Z,2.20
2018-09-08T12:29:02.440Z,2.30
2018-09-08T12:30:02.404Z,1.90
2018-09-08T12:31:02.532Z,2.30
2018-09-08T12:32:02.373Z,2.40
2018-09-08T12:33:02.332Z,2.30
2018-09-08T12:34:02.334Z,2.20
2018-09-08T12:35:02.336Z,2.20
2018-09-08T12:36:02.273Z,2.20
2018-09-08T12:37:02.302Z,2.10
2018-09-08T12:38:02.218Z,2.00
2018-09-08T12:39:02.198Z,2.20
2018-09-08T12:40:02.176Z,2.30
2018-09-08T12:41:02.163Z,2.30
2018-09-08T12:42:02.147Z,2.20
2018-09-08T12:43:02.103Z,2.70
2018-09-08T12:44:02.075Z,2.20
2018-09-08T12:45:02.054Z,2.40
2018-09-08T12:46:02.031Z,2.20
2018-09-08T12:47:02.013Z,2.10
2018-09-08T12:48:01.974Z,2.20
2018-09-08T12:49:01.957Z,2.40
2018-09-08T12:50:01.928Z,2.20
2018-09-08T12:51:01.923Z,2.40
2018-09-08T12:52:01.875Z,2.10
2018-09-08T12:53:01.861Z,2.10
2018-09-08T12:54:01.839Z,2.10
2018-09-08T12:55:01.839Z,2.10
2018-09-08T12:56:01.778Z,2.10
2018-09-08T12:57:01.750Z,2.30
2018-09-08T12:58:01.730Z,2.30
2018-09-08T12:59:01.806Z,1.90
2018-09-08T13:00:01.689Z,2.30
2018-09-08T13:01:01.654Z,2.10
2018-09-08T13:02:01.642Z,2.40
2018-09-08T13:03:01.618Z,2.40
2018-09-08T13:04:01.601Z,2.20
2018-09-08T13:05:01.577Z,2.30
2018-09-08T13:06:01.529Z,2.30